ADDS METAR Data INFO
IDs: Format: Raw Decoded Include TAF

Data at: 0104 UTC 21 Oct 2017

KAXN 210053Z AUTO 17017G25KT 10SM CLR 21/11 A2961 RMK AO2 PK WND 17026/0025 SLP024 T02060106
KAXN 202353Z AUTO 16015KT 10SM CLR 21/11 A2959 RMK AO2 SLP017 T02110106 10250 20200 56008
KAXN 202253Z AUTO 17017KT 10SM CLR 23/11 A2959 RMK AO2 PK WND 17030/2207 SLP017 T02280111
KAXN 202153Z AUTO 18020G30KT 10SM CLR 24/10 A2960 RMK AO2 PK WND 17031/2142 SLP021 T02440100
KAXN 202053Z AUTO 17016G29KT 10SM FEW120 25/11 A2961 RMK AO2 PK WND 18032/2026 SLP024 T02500111 56028
KAXN 201953Z AUTO 17018G31KT 10SM CLR 23/11 A2964 RMK AO2 PK WND 18031/1946 SLP033 T02280111
KAXN 201853Z AUTO 16021G28KT 10SM CLR 23/11 A2966 RMK AO2 PK WND 16028/1853 SLP041 T02280111
KAXN 201753Z AUTO 17016G24KT 10SM CLR 21/11 A2970 RMK AO2 SLP056 T02060106 10211 20133 58020
KAXN 201653Z AUTO 17016KT 10SM CLR 19/11 A2972 RMK AO2 PK WND 18026/1639 SLP064 T01940106
KAXN 201553Z AUTO 18016KT 10SM CLR 17/09 A2975 RMK AO2 SLP074 T01720094
KAXN 201453Z AUTO 18017G24KT 10SM CLR 16/09 A2976 RMK AO2 SLP078 T01610094 57005
KAXN 201353Z AUTO 18014KT 10SM CLR 15/09 A2977 RMK AO2 SLP080 T01500089
KAXN 201253Z AUTO 17009KT 10SM CLR 13/09 A2977 RMK AO2 SLP080 T01330089
KAXN 201153Z AUTO 17009KT 10SM CLR 14/09 A2977 RMK AO2 SLP083 T01390089 10144 20128 56008
KAXN 201053Z AUTO 17008KT 10SM CLR 14/09 A2978 RMK AO2 SLP084 T01440094
KAXN 200953Z AUTO 17009KT 10SM CLR 13/09 A2979 RMK AO2 SLP086 T01330094
KAXN 200853Z AUTO 18011KT 10SM CLR 14/10 A2980 RMK AO2 SLP088 T01390100 58013
KAXN 200753Z AUTO 17010KT 10SM CLR 13/09 A2982 RMK AO2 SLP095 T01330094
KAXN 200653Z AUTO 17009KT 10SM CLR 13/09 A2983 RMK AO2 SLP101 T01330089
KAXN 200553Z AUTO 17009KT 10SM CLR 13/08 A2984 RMK AO2 SLP104 T01330083 10183 20133 402280028 58007
KAXN 200453Z AUTO 17008KT 10SM CLR 13/08 A2985 RMK AO2 SLP109 T01330078
KAXN 200353Z AUTO 17010KT 10SM CLR 16/07 A2986 RMK AO2 SLP111 T01560072
KAXN 200253Z AUTO 17011KT 10SM CLR 16/07 A2986 RMK AO2 SLP114 T01610072 50000
KAXN 200153Z AUTO 17011KT 10SM CLR 16/07 A2986 RMK AO2 SLP117 T01610067
KAXN 200053Z AUTO 17011KT 10SM CLR 17/07 A2986 RMK AO2 SLP119 T01720067
KAXN 192353Z AUTO 17010KT 10SM CLR 18/07 A2986 RMK AO2 SLP117 T01780067 10228 20172 56007
KAXN 192253Z AUTO 17010KT 10SM CLR 20/07 A2986 RMK AO2 SLP117 T02000067
KAXN 192153Z AUTO 17012KT 10SM CLR 22/05 A2987 RMK AO2 SLP119 T02170050
KAXN 192053Z AUTO 19013KT 10SM CLR 23/04 A2988 RMK AO2 SLP123 T02280039 56023
KAXN 191953Z AUTO 20017G24KT 10SM CLR 22/03 A2989 RMK AO2 SLP126 T02220028
KAXN 191853Z AUTO 19015G21KT 10SM CLR 21/03 A2993 RMK AO2 PK WND 21026/1837 SLP138 T02110028
KAXN 191753Z AUTO 19017G20KT 10SM CLR 19/03 A2995 RMK AO2 SLP147 T01940028 10194 20039 58012
KAXN 191653Z AUTO 18019G25KT 10SM CLR 17/01 A2997 RMK AO2 SLP156 T01720011
KAXN 191553Z AUTO 18015G21KT 10SM CLR 16/00 A2998 RMK AO2 SLP159 T01610000
KAXN 191453Z AUTO 18011KT 10SM CLR 13/M01 A2999 RMK AO2 SLP161 T01331006 58001
KAXN 191353Z AUTO 19010KT 10SM CLR 11/M02 A2999 RMK AO2 SLP164 T01061017